Doagh, United Kingdom
Current Conditions -  °F | °C
As of 9:20 AM on Wednesday 22 Oct 2014 (Local Time) from EGAA Reporting Station
Moderate Rain Moderate Rain  
Wind Chill: 44°   Ceiling: 2400
Heat Index: 48°   Visibility: 4mi
Dew Point: 46°   Wind: 9mph
Humidity: 93%   Direction: 210°SSW
Pressure: 30.15"   Gusts: NA
Location:  54.75°N, 6.08°W
Report Text: EGAA 220820Z 21008KT 7000 RA SCT016 BKN024 09/08 Q1021
Loading
Personal Weather Stations






























Interactive Weather Map New forecast layout! Learn more

10-Day Weather Forecast

Advertisements
Track Severe Weather on mobile